sensor_id;sensor_type;location;lat;lon;timestamp;pressure;altitude;pressure_sealevel;temperature;humidity
41862;BME280;27537;57.134;-2.136;2023-09-07T00:01:34;101413.84;;;16.98;100.00
41862;BME280;27537;57.134;-2.136;2023-09-07T00:04:00;101392.84;;;16.78;100.00
41862;BME280;27537;57.134;-2.136;2023-09-07T00:06:30;101402.78;;;17.23;100.00
41862;BME280;27537;57.134;-2.136;2023-09-07T00:08:57;101412.59;;;17.53;100.00
41862;BME280;27537;57.134;-2.136;2023-09-07T00:11:23;101413.22;;;17.58;100.00
41862;BME280;27537;57.134;-2.136;2023-09-07T00:13:50;101408.31;;;17.67;100.00
41862;BME280;27537;57.134;-2.136;2023-09-07T00:16:17;101415.50;;;17.64;100.00
41862;BME280;27537;57.134;-2.136;2023-09-07T00:18:45;101405.34;;;17.73;100.00
41862;BME280;27537;57.134;-2.136;2023-09-07T00:21:11;101400.97;;;17.72;100.00
41862;BME280;27537;57.134;-2.136;2023-09-07T00:23:39;101402.31;;;17.79;100.00
41862;BME280;27537;57.134;-2.136;2023-09-07T00:26:06;101393.53;;;17.62;100.00
41862;BME280;27537;57.134;-2.136;2023-09-07T00:28:33;101385.16;;;17.54;100.00
41862;BME280;27537;57.134;-2.136;2023-09-07T00:31:00;101398.31;;;17.56;100.00
41862;BME280;27537;57.134;-2.136;2023-09-07T00:33:27;101392.78;;;17.44;100.00
41862;BME280;27537;57.134;-2.136;2023-09-07T00:35:54;101389.72;;;17.52;100.00
41862;BME280;27537;57.134;-2.136;2023-09-07T00:38:20;101400.22;;;17.54;100.00
41862;BME280;27537;57.134;-2.136;2023-09-07T00:40:47;101402.69;;;17.57;100.00
41862;BME280;27537;57.134;-2.136;2023-09-07T00:43:14;101408.75;;;17.59;100.00
41862;BME280;27537;57.134;-2.136;2023-09-07T00:45:41;101406.03;;;17.44;100.00
41862;BME280;27537;57.134;-2.136;2023-09-07T00:48:08;101415.06;;;17.56;100.00
41862;BME280;27537;57.134;-2.136;2023-09-07T00:50:35;101406.97;;;17.43;100.00
41862;BME280;27537;57.134;-2.136;2023-09-07T00:53:02;101413.09;;;17.60;100.00
41862;BME280;27537;57.134;-2.136;2023-09-07T00:55:29;101407.63;;;17.63;100.00
41862;BME280;27537;57.134;-2.136;2023-09-07T00:58:00;101394.22;;;17.66;100.00
41862;BME280;27537;57.134;-2.136;2023-09-07T01:00:27;101391.75;;;17.63;100.00
41862;BME280;27537;57.134;-2.136;2023-09-07T01:02:54;101394.06;;;17.69;100.00
41862;BME280;27537;57.134;-2.136;2023-09-07T01:05:30;101374.94;;;17.00;100.00
41862;BME280;27537;57.134;-2.136;2023-09-07T01:08:10;101377.56;;;16.84;100.00
41862;BME280;27537;57.134;-2.136;2023-09-07T01:10:38;101377.59;;;16.83;100.00
41862;BME280;27537;57.134;-2.136;2023-09-07T01:13:05;101376.41;;;17.22;100.00
41862;BME280;27537;57.134;-2.136;2023-09-07T01:15:31;101381.34;;;17.44;100.00
41862;BME280;27537;57.134;-2.136;2023-09-07T01:17:58;101380.75;;;17.39;100.00
41862;BME280;27537;57.134;-2.136;2023-09-07T01:20:47;101380.16;;;17.50;100.00
41862;BME280;27537;57.134;-2.136;2023-09-07T01:23:14;101372.22;;;17.18;100.00
41862;BME280;27537;57.134;-2.136;2023-09-07T01:25:42;101374.56;;;16.73;100.00
41862;BME280;27537;57.134;-2.136;2023-09-07T01:28:10;101379.03;;;16.73;100.00
41862;BME280;27537;57.134;-2.136;2023-09-07T01:30:36;101383.06;;;17.29;100.00
41862;BME280;27537;57.134;-2.136;2023-09-07T01:33:05;101379.69;;;16.94;100.00
41862;BME280;27537;57.134;-2.136;2023-09-07T01:35:33;101363.22;;;16.71;100.00
41862;BME280;27537;57.134;-2.136;2023-09-07T01:38:01;101379.97;;;16.72;100.00
41862;BME280;27537;57.134;-2.136;2023-09-07T01:40:28;101373.03;;;16.69;100.00
41862;BME280;27537;57.134;-2.136;2023-09-07T01:42:55;101374.22;;;16.63;100.00
41862;BME280;27537;57.134;-2.136;2023-09-07T01:45:22;101353.56;;;16.54;100.00
41862;BME280;27537;57.134;-2.136;2023-09-07T01:47:50;101370.28;;;16.55;100.00
41862;BME280;27537;57.134;-2.136;2023-09-07T01:50:18;101374.94;;;16.49;100.00
41862;BME280;27537;57.134;-2.136;2023-09-07T01:52:47;101374.81;;;16.52;100.00
41862;BME280;27537;57.134;-2.136;2023-09-07T01:55:15;101378.38;;;16.51;100.00
41862;BME280;27537;57.134;-2.136;2023-09-07T01:57:42;101387.69;;;16.41;100.00
41862;BME280;27537;57.134;-2.136;2023-09-07T02:00:09;101378.41;;;16.85;100.00
41862;BME280;27537;57.134;-2.136;2023-09-07T02:02:36;101376.53;;;16.87;100.00
41862;BME280;27537;57.134;-2.136;2023-09-07T02:05:03;101361.94;;;16.96;100.00
41862;BME280;27537;57.134;-2.136;2023-09-07T02:07:30;101359.47;;;16.93;100.00
41862;BME280;27537;57.134;-2.136;2023-09-07T02:09:57;101362.03;;;17.10;100.00
41862;BME280;27537;57.134;-2.136;2023-09-07T02:12:24;101365.28;;;17.15;100.00
41862;BME280;27537;57.134;-2.136;2023-09-07T02:14:50;101355.06;;;17.09;100.00
41862;BME280;27537;57.134;-2.136;2023-09-07T02:17:17;101364.19;;;17.03;100.00
41862;BME280;27537;57.134;-2.136;2023-09-07T02:19:44;101367.22;;;16.62;100.00
41862;BME280;27537;57.134;-2.136;2023-09-07T02:22:11;101366.19;;;16.49;100.00
41862;BME280;27537;57.134;-2.136;2023-09-07T02:24:38;101367.22;;;16.62;100.00
41862;BME280;27537;57.134;-2.136;2023-09-07T02:27:05;101366.16;;;16.66;100.00
41862;BME280;27537;57.134;-2.136;2023-09-07T02:29:31;101365.16;;;16.51;100.00
41862;BME280;27537;57.134;-2.136;2023-09-07T02:31:58;101355.81;;;16.62;100.00
41862;BME280;27537;57.134;-2.136;2023-09-07T02:34:25;101364.75;;;16.59;100.00
41862;BME280;27537;57.134;-2.136;2023-09-07T02:36:51;101369.25;;;16.57;100.00
41862;BME280;27537;57.134;-2.136;2023-09-07T02:39:18;101362.47;;;16.69;100.00
41862;BME280;27537;57.134;-2.136;2023-09-07T02:41:45;101363.50;;;16.84;100.00
41862;BME280;27537;57.134;-2.136;2023-09-07T02:44:12;101371.41;;;16.84;100.00
41862;BME280;27537;57.134;-2.136;2023-09-07T02:46:39;101380.19;;;16.84;100.00
41862;BME280;27537;57.134;-2.136;2023-09-07T02:49:06;101373.34;;;16.80;100.00
41862;BME280;27537;57.134;-2.136;2023-09-07T02:51:33;101362.47;;;16.86;100.00
41862;BME280;27537;57.134;-2.136;2023-09-07T02:54:01;101352.97;;;16.82;100.00
41862;BME280;27537;57.134;-2.136;2023-09-07T02:56:28;101370.16;;;16.91;100.00
41862;BME280;27537;57.134;-2.136;2023-09-07T02:58:55;101365.03;;;16.70;100.00
41862;BME280;27537;57.134;-2.136;2023-09-07T03:01:23;101374.19;;;16.81;100.00
41862;BME280;27537;57.134;-2.136;2023-09-07T03:03:50;101364.88;;;16.74;100.00
41862;BME280;27537;57.134;-2.136;2023-09-07T03:06:17;101377.09;;;16.59;100.00
41862;BME280;27537;57.134;-2.136;2023-09-07T03:08:43;101366.59;;;16.57;100.00
41862;BME280;27537;57.134;-2.136;2023-09-07T03:11:11;101364.56;;;16.62;100.00
41862;BME280;27537;57.134;-2.136;2023-09-07T03:13:38;101388.69;;;16.74;100.00
41862;BME280;27537;57.134;-2.136;2023-09-07T03:16:05;101371.84;;;16.75;100.00
41862;BME280;27537;57.134;-2.136;2023-09-07T03:18:32;101371.66;;;16.62;100.00
41862;BME280;27537;57.134;-2.136;2023-09-07T03:21:01;101368.06;;;16.47;100.00
41862;BME280;27537;57.134;-2.136;2023-09-07T03:23:29;101398.94;;;16.29;100.00
41862;BME280;27537;57.134;-2.136;2023-09-07T03:25:57;101398.59;;;16.18;100.00
41862;BME280;27537;57.134;-2.136;2023-09-07T03:28:25;101382.91;;;15.97;100.00
41862;BME280;27537;57.134;-2.136;2023-09-07T03:30:53;101399.81;;;15.93;100.00
41862;BME280;27537;57.134;-2.136;2023-09-07T03:33:20;101401.16;;;16.02;100.00
41862;BME280;27537;57.134;-2.136;2023-09-07T03:35:47;101391.53;;;16.01;100.00
41862;BME280;27537;57.134;-2.136;2023-09-07T03:38:14;101379.41;;;15.97;100.00
41862;BME280;27537;57.134;-2.136;2023-09-07T03:40:40;101392.38;;;16.01;100.00
41862;BME280;27537;57.134;-2.136;2023-09-07T03:43:07;101389.34;;;15.91;100.00
41862;BME280;27537;57.134;-2.136;2023-09-07T03:45:34;101397.81;;;15.98;100.00
41862;BME280;27537;57.134;-2.136;2023-09-07T03:48:00;101396.28;;;15.94;100.00
41862;BME280;27537;57.134;-2.136;2023-09-07T03:50:28;101398.88;;;15.77;100.00
41862;BME280;27537;57.134;-2.136;2023-09-07T03:52:54;101391.59;;;15.82;100.00
41862;BME280;27537;57.134;-2.136;2023-09-07T03:55:21;101394.56;;;16.10;100.00
41862;BME280;27537;57.134;-2.136;2023-09-07T03:57:48;101395.19;;;16.16;100.00
41862;BME280;27537;57.134;-2.136;2023-09-07T04:00:16;101381.50;;;16.07;100.00
41862;BME280;27537;57.134;-2.136;2023-09-07T04:02:44;101390.75;;;16.16;100.00
41862;BME280;27537;57.134;-2.136;2023-09-07T04:05:11;101371.97;;;16.22;100.00
41862;BME280;27537;57.134;-2.136;2023-09-07T04:07:38;101384.53;;;16.35;100.00
41862;BME280;27537;57.134;-2.136;2023-09-07T04:10:05;101383.38;;;16.40;100.00
41862;BME280;27537;57.134;-2.136;2023-09-07T04:12:32;101356.53;;;16.48;100.00
41862;BME280;27537;57.134;-2.136;2023-09-07T04:15:01;101362.44;;;16.53;100.00
41862;BME280;27537;57.134;-2.136;2023-09-07T04:17:29;101359.44;;;16.43;100.00
41862;BME280;27537;57.134;-2.136;2023-09-07T04:19:56;101359.66;;;16.39;100.00
41862;BME280;27537;57.134;-2.136;2023-09-07T04:22:22;101385.59;;;16.48;100.00
41862;BME280;27537;57.134;-2.136;2023-09-07T04:24:49;101378.16;;;16.39;100.00
41862;BME280;27537;57.134;-2.136;2023-09-07T04:27:16;101382.19;;;16.28;100.00
41862;BME280;27537;57.134;-2.136;2023-09-07T04:29:43;101378.56;;;16.31;100.00
41862;BME280;27537;57.134;-2.136;2023-09-07T04:32:09;101384.97;;;16.43;100.00
41862;BME280;27537;57.134;-2.136;2023-09-07T04:34:36;101368.63;;;16.36;100.00
41862;BME280;27537;57.134;-2.136;2023-09-07T04:37:03;101352.06;;;16.32;100.00
41862;BME280;27537;57.134;-2.136;2023-09-07T04:39:30;101375.75;;;16.34;100.00
41862;BME280;27537;57.134;-2.136;2023-09-07T04:41:56;101373.34;;;16.29;100.00
41862;BME280;27537;57.134;-2.136;2023-09-07T04:44:23;101389.19;;;16.29;100.00
41862;BME280;27537;57.134;-2.136;2023-09-07T04:46:49;101374.03;;;16.33;100.00
41862;BME280;27537;57.134;-2.136;2023-09-07T04:49:18;101371.53;;;16.47;100.00
41862;BME280;27537;57.134;-2.136;2023-09-07T04:51:45;101393.53;;;16.48;100.00
41862;BME280;27537;57.134;-2.136;2023-09-07T04:54:11;101397.81;;;16.50;100.00
41862;BME280;27537;57.134;-2.136;2023-09-07T04:56:38;101388.16;;;16.49;100.00
41862;BME280;27537;57.134;-2.136;2023-09-07T04:59:05;101395.31;;;16.47;100.00
41862;BME280;27537;57.134;-2.136;2023-09-07T05:01:32;101381.66;;;16.22;100.00
41862;BME280;27537;57.134;-2.136;2023-09-07T05:03:59;101388.94;;;16.34;100.00
41862;BME280;27537;57.134;-2.136;2023-09-07T05:06:25;101409.53;;;16.45;100.00
41862;BME280;27537;57.134;-2.136;2023-09-07T05:08:52;101410.63;;;16.41;100.00
41862;BME280;27537;57.134;-2.136;2023-09-07T05:11:19;101406.13;;;16.25;100.00
41862;BME280;27537;57.134;-2.136;2023-09-07T05:13:46;101404.44;;;16.24;100.00
41862;BME280;27537;57.134;-2.136;2023-09-07T05:16:13;101400.47;;;16.33;100.00
41862;BME280;27537;57.134;-2.136;2023-09-07T05:18:41;101393.16;;;16.38;100.00
41862;BME280;27537;57.134;-2.136;2023-09-07T05:21:12;101405.22;;;16.26;100.00
41862;BME280;27537;57.134;-2.136;2023-09-07T05:23:40;101405.44;;;16.39;100.00
41862;BME280;27537;57.134;-2.136;2023-09-07T05:26:06;101392.97;;;16.41;100.00
41862;BME280;27537;57.134;-2.136;2023-09-07T05:28:33;101396.59;;;16.23;100.00
41862;BME280;27537;57.134;-2.136;2023-09-07T05:31:00;101410.28;;;16.31;100.00
41862;BME280;27537;57.134;-2.136;2023-09-07T05:33:27;101409.88;;;16.39;100.00
41862;BME280;27537;57.134;-2.136;2023-09-07T05:35:53;101409.38;;;16.48;100.00
41862;BME280;27537;57.134;-2.136;2023-09-07T05:38:20;101399.91;;;16.44;100.00
41862;BME280;27537;57.134;-2.136;2023-09-07T05:40:47;101414.81;;;16.62;100.00
41862;BME280;27537;57.134;-2.136;2023-09-07T05:43:16;101407.22;;;16.56;100.00
41862;BME280;27537;57.134;-2.136;2023-09-07T05:45:43;101419.25;;;16.62;100.00
41862;BME280;27537;57.134;-2.136;2023-09-07T05:48:10;101414.34;;;16.72;100.00
41862;BME280;27537;57.134;-2.136;2023-09-07T05:50:37;101420.47;;;16.72;100.00
41862;BME280;27537;57.134;-2.136;2023-09-07T05:53:05;101431.06;;;16.72;100.00
41862;BME280;27537;57.134;-2.136;2023-09-07T05:55:32;101429.50;;;16.85;100.00
41862;BME280;27537;57.134;-2.136;2023-09-07T05:58:04;101419.97;;;16.99;100.00
41862;BME280;27537;57.134;-2.136;2023-09-07T06:00:31;101422.19;;;16.91;100.00
41862;BME280;27537;57.134;-2.136;2023-09-07T06:02:58;101440.53;;;16.94;100.00
41862;BME280;27537;57.134;-2.136;2023-09-07T06:05:25;101426.38;;;16.95;100.00
41862;BME280;27537;57.134;-2.136;2023-09-07T06:07:52;101440.34;;;17.14;100.00
41862;BME280;27537;57.134;-2.136;2023-09-07T06:10:18;101431.88;;;17.07;100.00
41862;BME280;27537;57.134;-2.136;2023-09-07T06:12:45;101444.25;;;17.07;100.00
41862;BME280;27537;57.134;-2.136;2023-09-07T06:15:12;101439.31;;;17.17;100.00
41862;BME280;27537;57.134;-2.136;2023-09-07T06:17:39;101437.50;;;17.17;100.00
41862;BME280;27537;57.134;-2.136;2023-09-07T06:20:06;101446.38;;;17.16;100.00
41862;BME280;27537;57.134;-2.136;2023-09-07T06:22:33;101453.06;;;17.23;100.00
41862;BME280;27537;57.134;-2.136;2023-09-07T06:25:00;101457.34;;;17.42;100.00
41862;BME280;27537;57.134;-2.136;2023-09-07T06:27:26;101453.69;;;17.60;100.00
41862;BME280;27537;57.134;-2.136;2023-09-07T06:29:53;101456.06;;;17.65;100.00
41862;BME280;27537;57.134;-2.136;2023-09-07T06:32:20;101457.53;;;17.71;100.00
41862;BME280;27537;57.134;-2.136;2023-09-07T06:34:46;101448.31;;;17.62;100.00
41862;BME280;27537;57.134;-2.136;2023-09-07T06:37:13;101449.47;;;17.56;100.00
41862;BME280;27537;57.134;-2.136;2023-09-07T06:39:40;101463.50;;;17.42;100.00
41862;BME280;27537;57.134;-2.136;2023-09-07T06:42:09;101459.88;;;17.27;100.00
41862;BME280;27537;57.134;-2.136;2023-09-07T06:44:39;101469.09;;;17.20;100.00
41862;BME280;27537;57.134;-2.136;2023-09-07T06:47:05;101479.19;;;16.96;100.00
41862;BME280;27537;57.134;-2.136;2023-09-07T06:49:32;101486.88;;;16.66;100.00
41862;BME280;27537;57.134;-2.136;2023-09-07T06:51:59;101488.28;;;16.73;100.00
41862;BME280;27537;57.134;-2.136;2023-09-07T06:54:28;101474.84;;;16.78;100.00
41862;BME280;27537;57.134;-2.136;2023-09-07T06:56:55;101479.91;;;16.82;100.00
41862;BME280;27537;57.134;-2.136;2023-09-07T06:59:22;101481.63;;;16.83;100.00
41862;BME280;27537;57.134;-2.136;2023-09-07T07:01:48;101489.94;;;16.93;100.00
41862;BME280;27537;57.134;-2.136;2023-09-07T07:04:15;101482.69;;;16.97;100.00
41862;BME280;27537;57.134;-2.136;2023-09-07T07:06:42;101480.03;;;17.14;100.00
41862;BME280;27537;57.134;-2.136;2023-09-07T07:09:09;101481.13;;;17.26;100.00
41862;BME280;27537;57.134;-2.136;2023-09-07T07:11:37;101470.91;;;17.36;100.00
41862;BME280;27537;57.134;-2.136;2023-09-07T07:14:05;101478.44;;;17.43;100.00
41862;BME280;27537;57.134;-2.136;2023-09-07T07:16:32;101486.47;;;17.58;100.00
41862;BME280;27537;57.134;-2.136;2023-09-07T07:18:59;101492.81;;;17.55;100.00
41862;BME280;27537;57.134;-2.136;2023-09-07T07:21:25;101495.09;;;17.61;100.00
41862;BME280;27537;57.134;-2.136;2023-09-07T07:23:52;101482.97;;;17.73;100.00
41862;BME280;27537;57.134;-2.136;2023-09-07T07:26:21;101478.88;;;17.83;100.00
41862;BME280;27537;57.134;-2.136;2023-09-07T07:28:47;101485.97;;;17.83;100.00
41862;BME280;27537;57.134;-2.136;2023-09-07T07:31:14;101487.84;;;17.81;100.00
41862;BME280;27537;57.134;-2.136;2023-09-07T07:33:41;101483.69;;;17.93;100.00
41862;BME280;27537;57.134;-2.136;2023-09-07T07:36:07;101491.84;;;18.20;100.00
41862;BME280;27537;57.134;-2.136;2023-09-07T07:38:35;101488.47;;;18.32;100.00
41862;BME280;27537;57.134;-2.136;2023-09-07T07:41:02;101468.41;;;18.28;100.00
41862;BME280;27537;57.134;-2.136;2023-09-07T07:43:28;101480.41;;;18.50;100.00
41862;BME280;27537;57.134;-2.136;2023-09-07T07:45:56;101469.47;;;18.70;100.00
41862;BME280;27537;57.134;-2.136;2023-09-07T07:48:23;101453.69;;;18.83;100.00
41862;BME280;27537;57.134;-2.136;2023-09-07T07:50:49;101455.97;;;19.04;100.00
41862;BME280;27537;57.134;-2.136;2023-09-07T07:53:16;101460.59;;;19.14;100.00
41862;BME280;27537;57.134;-2.136;2023-09-07T07:55:44;101458.44;;;19.21;100.00
41862;BME280;27537;57.134;-2.136;2023-09-07T07:58:11;101466.75;;;19.29;100.00
41862;BME280;27537;57.134;-2.136;2023-09-07T08:00:38;101466.16;;;19.39;100.00
41862;BME280;27537;57.134;-2.136;2023-09-07T08:03:07;101468.41;;;19.59;100.00
41862;BME280;27537;57.134;-2.136;2023-09-07T08:05:34;101472.91;;;19.44;100.00
41862;BME280;27537;57.134;-2.136;2023-09-07T08:08:01;101466.78;;;19.71;100.00
41862;BME280;27537;57.134;-2.136;2023-09-07T08:10:28;101477.38;;;20.13;100.00
41862;BME280;27537;57.134;-2.136;2023-09-07T08:12:57;101472.41;;;20.21;100.00
41862;BME280;27537;57.134;-2.136;2023-09-07T08:15:24;101475.78;;;20.10;100.00
41862;BME280;27537;57.134;-2.136;2023-09-07T08:17:52;101462.88;;;20.04;100.00
41862;BME280;27537;57.134;-2.136;2023-09-07T08:20:19;101472.19;;;19.84;100.00
41862;BME280;27537;57.134;-2.136;2023-09-07T08:22:46;101479.25;;;19.98;100.00
41862;BME280;27537;57.134;-2.136;2023-09-07T08:25:13;101495.22;;;19.98;100.00
41862;BME280;27537;57.134;-2.136;2023-09-07T08:27:41;101486.00;;;20.16;100.00
41862;BME280;27537;57.134;-2.136;2023-09-07T08:30:15;101473.34;;;20.07;100.00
41862;BME280;27537;57.134;-2.136;2023-09-07T08:32:44;101491.97;;;20.20;100.00
41862;BME280;27537;57.134;-2.136;2023-09-07T08:35:13;101477.69;;;20.48;100.00
41862;BME280;27537;57.134;-2.136;2023-09-07T08:37:40;101493.94;;;21.09;100.00
41862;BME280;27537;57.134;-2.136;2023-09-07T08:40:08;101498.50;;;21.20;100.00
41862;BME280;27537;57.134;-2.136;2023-09-07T08:42:36;101486.88;;;21.21;100.00
41862;BME280;27537;57.134;-2.136;2023-09-07T08:45:04;101491.59;;;21.30;100.00
41862;BME280;27537;57.134;-2.136;2023-09-07T08:47:37;101484.59;;;21.40;100.00
41862;BME280;27537;57.134;-2.136;2023-09-07T08:50:05;101488.25;;;21.52;100.00
41862;BME280;27537;57.134;-2.136;2023-09-07T08:52:35;101481.88;;;21.55;100.00
41862;BME280;27537;57.134;-2.136;2023-09-07T08:55:03;101479.41;;;21.89;100.00
41862;BME280;27537;57.134;-2.136;2023-09-07T08:57:31;101483.47;;;22.06;100.00
41862;BME280;27537;57.134;-2.136;2023-09-07T08:59:59;101480.25;;;22.13;100.00
41862;BME280;27537;57.134;-2.136;2023-09-07T09:02:25;101475.38;;;22.31;100.00
41862;BME280;27537;57.134;-2.136;2023-09-07T09:04:53;101477.72;;;22.47;100.00
41862;BME280;27537;57.134;-2.136;2023-09-07T09:07:20;101490.06;;;22.37;100.00
41862;BME280;27537;57.134;-2.136;2023-09-07T09:09:48;101485.28;;;22.05;100.00
41862;BME280;27537;57.134;-2.136;2023-09-07T09:12:16;101482.94;;;22.49;100.00
41862;BME280;27537;57.134;-2.136;2023-09-07T09:14:44;101478.06;;;22.54;100.00
41862;BME280;27537;57.134;-2.136;2023-09-07T09:17:12;101477.28;;;22.87;100.00
41862;BME280;27537;57.134;-2.136;2023-09-07T09:19:40;101472.59;;;23.02;100.00
41862;BME280;27537;57.134;-2.136;2023-09-07T09:22:11;101472.56;;;22.80;100.00
41862;BME280;27537;57.134;-2.136;2023-09-07T09:24:38;101470.50;;;22.83;100.00
41862;BME280;27537;57.134;-2.136;2023-09-07T09:27:05;101476.94;;;23.03;100.00
41862;BME280;27537;57.134;-2.136;2023-09-07T09:29:35;101462.31;;;23.20;100.00
41862;BME280;27537;57.134;-2.136;2023-09-07T09:32:06;101469.50;;;23.63;100.00
41862;BME280;27537;57.134;-2.136;2023-09-07T09:34:35;101466.44;;;23.91;100.00
41862;BME280;27537;57.134;-2.136;2023-09-07T09:37:02;101465.75;;;24.10;100.00
41862;BME280;27537;57.134;-2.136;2023-09-07T09:39:33;101454.44;;;24.17;100.00
41862;BME280;27537;57.134;-2.136;2023-09-07T09:42:01;101443.88;;;24.04;100.00
41862;BME280;27537;57.134;-2.136;2023-09-07T09:44:29;101452.03;;;24.35;100.00
41862;BME280;27537;57.134;-2.136;2023-09-07T09:46:57;101456.38;;;24.36;100.00
41862;BME280;27537;57.134;-2.136;2023-09-07T09:49:24;101455.53;;;24.36;100.00
41862;BME280;27537;57.134;-2.136;2023-09-07T09:51:53;101460.56;;;24.29;100.00
41862;BME280;27537;57.134;-2.136;2023-09-07T09:54:21;101456.72;;;24.43;100.00
41862;BME280;27537;57.134;-2.136;2023-09-07T09:56:48;101439.69;;;24.44;100.00
41862;BME280;27537;57.134;-2.136;2023-09-07T09:59:15;101451.34;;;24.54;100.00
41862;BME280;27537;57.134;-2.136;2023-09-07T10:01:47;101451.63;;;24.61;100.00
41862;BME280;27537;57.134;-2.136;2023-09-07T10:04:16;101445.31;;;24.93;100.00
41862;BME280;27537;57.134;-2.136;2023-09-07T10:06:53;101433.72;;;25.13;100.00
41862;BME280;27537;57.134;-2.136;2023-09-07T10:09:21;101442.72;;;25.43;100.00
41862;BME280;27537;57.134;-2.136;2023-09-07T10:11:54;101452.78;;;25.20;100.00
41862;BME280;27537;57.134;-2.136;2023-09-07T10:14:21;101450.84;;;25.32;100.00
41862;BME280;27537;57.134;-2.136;2023-09-07T10:16:52;101444.44;;;25.54;100.00
41862;BME280;27537;57.134;-2.136;2023-09-07T10:19:21;101438.63;;;25.49;100.00
41862;BME280;27537;57.134;-2.136;2023-09-07T10:21:49;101435.28;;;25.76;100.00
41862;BME280;27537;57.134;-2.136;2023-09-07T10:24:29;101428.81;;;26.18;100.00
41862;BME280;27537;57.134;-2.136;2023-09-07T10:27:01;101426.28;;;25.97;100.00
41862;BME280;27537;57.134;-2.136;2023-09-07T10:29:28;101418.19;;;25.77;100.00
41862;BME280;27537;57.134;-2.136;2023-09-07T10:31:55;101405.66;;;26.07;100.00
41862;BME280;27537;57.134;-2.136;2023-09-07T10:34:34;101411.69;;;26.28;100.00
41862;BME280;27537;57.134;-2.136;2023-09-07T10:37:01;101405.00;;;26.52;100.00
41862;BME280;27537;57.134;-2.136;2023-09-07T10:39:31;101405.81;;;26.05;100.00
41862;BME280;27537;57.134;-2.136;2023-09-07T10:41:58;101399.50;;;26.63;100.00
41862;BME280;27537;57.134;-2.136;2023-09-07T10:44:26;101407.09;;;26.68;100.00
41862;BME280;27537;57.134;-2.136;2023-09-07T10:46:54;101405.97;;;26.70;100.00
41862;BME280;27537;57.134;-2.136;2023-09-07T10:49:20;101401.94;;;27.12;100.00
41862;BME280;27537;57.134;-2.136;2023-09-07T10:51:48;101402.09;;;26.83;100.00
41862;BME280;27537;57.134;-2.136;2023-09-07T10:54:21;101403.84;;;26.64;100.00
41862;BME280;27537;57.134;-2.136;2023-09-07T10:56:49;101410.34;;;26.71;100.00
41862;BME280;27537;57.134;-2.136;2023-09-07T10:59:17;101387.50;;;26.38;100.00
41862;BME280;27537;57.134;-2.136;2023-09-07T11:01:44;101390.50;;;26.25;100.00
41862;BME280;27537;57.134;-2.136;2023-09-07T11:04:12;101393.97;;;26.45;100.00
41862;BME280;27537;57.134;-2.136;2023-09-07T11:06:40;101410.59;;;26.11;100.00
41862;BME280;27537;57.134;-2.136;2023-09-07T11:09:09;101411.44;;;25.73;100.00
41862;BME280;27537;57.134;-2.136;2023-09-07T11:11:38;101410.97;;;25.58;100.00
41862;BME280;27537;57.134;-2.136;2023-09-07T11:14:05;101404.78;;;25.87;100.00
41862;BME280;27537;57.134;-2.136;2023-09-07T11:16:33;101396.78;;;25.97;100.00
41862;BME280;27537;57.134;-2.136;2023-09-07T11:19:04;101414.94;;;25.93;100.00
41862;BME280;27537;57.134;-2.136;2023-09-07T11:21:31;101399.97;;;25.42;100.00
41862;BME280;27537;57.134;-2.136;2023-09-07T11:24:03;101398.31;;;25.19;100.00
41862;BME280;27537;57.134;-2.136;2023-09-07T11:26:46;101408.13;;;25.30;100.00
41862;BME280;27537;57.134;-2.136;2023-09-07T11:29:14;101408.63;;;25.24;100.00
41862;BME280;27537;57.134;-2.136;2023-09-07T11:31:44;101407.28;;;25.39;100.00
41862;BME280;27537;57.134;-2.136;2023-09-07T11:34:12;101404.78;;;25.57;100.00
41862;BME280;27537;57.134;-2.136;2023-09-07T11:36:43;101410.47;;;25.93;100.00
41862;BME280;27537;57.134;-2.136;2023-09-07T11:39:10;101417.72;;;25.33;100.00
41862;BME280;27537;57.134;-2.136;2023-09-07T11:41:41;101396.97;;;24.94;100.00
41862;BME280;27537;57.134;-2.136;2023-09-07T11:44:09;101398.09;;;24.61;100.00
41862;BME280;27537;57.134;-2.136;2023-09-07T11:46:37;101410.84;;;25.09;100.00
41862;BME280;27537;57.134;-2.136;2023-09-07T11:49:04;101403.91;;;25.07;100.00
41862;BME280;27537;57.134;-2.136;2023-09-07T11:51:36;101421.09;;;25.35;100.00
41862;BME280;27537;57.134;-2.136;2023-09-07T11:54:03;101418.19;;;25.17;100.00
41862;BME280;27537;57.134;-2.136;2023-09-07T11:56:31;101420.69;;;25.39;100.00
41862;BME280;27537;57.134;-2.136;2023-09-07T11:58:58;101419.16;;;25.06;100.00
41862;BME280;27537;57.134;-2.136;2023-09-07T12:01:24;101423.78;;;25.25;100.00
41862;BME280;27537;57.134;-2.136;2023-09-07T12:03:53;101413.56;;;25.69;100.00
41862;BME280;27537;57.134;-2.136;2023-09-07T12:06:19;101413.41;;;25.81;100.00
41862;BME280;27537;57.134;-2.136;2023-09-07T12:11:26;101410.13;;;25.67;100.00
41862;BME280;27537;57.134;-2.136;2023-09-07T12:13:53;101405.78;;;25.95;100.00
41862;BME280;27537;57.134;-2.136;2023-09-07T12:16:20;101402.94;;;26.17;100.00
41862;BME280;27537;57.134;-2.136;2023-09-07T12:18:46;101395.00;;;26.34;100.00
41862;BME280;27537;57.134;-2.136;2023-09-07T12:21:13;101382.81;;;26.50;100.00
41862;BME280;27537;57.134;-2.136;2023-09-07T12:23:40;101378.63;;;26.38;100.00
41862;BME280;27537;57.134;-2.136;2023-09-07T12:26:07;101379.25;;;26.59;100.00
41862;BME280;27537;57.134;-2.136;2023-09-07T12:28:35;101368.53;;;26.02;100.00
41862;BME280;27537;57.134;-2.136;2023-09-07T12:31:02;101366.28;;;26.45;100.00
41862;BME280;27537;57.134;-2.136;2023-09-07T12:33:29;101362.56;;;26.28;100.00
41862;BME280;27537;57.134;-2.136;2023-09-07T12:35:57;101370.97;;;26.43;100.00